Time;durP1;ratioP1;P1;durP2;ratioP2;P2;SDS_P1;SDS_P2;PMS_P1;PMS_P2;Temp;Humidity;BMP_temperature;BMP_pressure;BME280_temperature;BME280_humidity;BME280_pressure;Samples;Min_cycle;Max_cycle;Signal;HPM_P1;HPM_P2
2023/11/13 00:00:12;;;;;;;1.77;0.80;;;;;;;;;;5049533;28;20040;-60
2023/11/13 00:02:40;;;;;;;0.40;0.37;;;;;;;;;;5053467;28;20071;-60
2023/11/13 00:05:07;;;;;;;0.00;0.00;;;;;;;;;;5071902;28;20447;-60
2023/11/13 00:07:34;;;;;;;0.00;0.00;;;;;;;;;;5074242;28;20525;-60
2023/11/13 00:10:00;;;;;;;0.20;0.10;;;;;;;;;;5074466;28;20048;-60
2023/11/13 00:12:27;;;;;;;0.00;0.00;;;;;;;;;;5072702;28;20055;-60
2023/11/13 00:14:53;;;;;;;0.00;0.00;;;;;;;;;;5055613;28;20059;-60
2023/11/13 00:17:20;;;;;;;0.10;0.10;;;;;;;;;;5064087;28;20532;-60
2023/11/13 00:19:47;;;;;;;1.33;0.20;;;;;;;;;;5067949;28;20021;-60
2023/11/13 00:22:13;;;;;;;0.00;0.00;;;;;;;;;;5068143;28;20025;-60
2023/11/13 00:24:40;;;;;;;0.00;0.00;;;;;;;;;;5066088;28;20108;-60
2023/11/13 00:27:07;;;;;;;0.10;0.00;;;;;;;;;;5051274;28;20482;-59
2023/11/13 00:29:33;;;;;;;0.50;0.20;;;;;;;;;;5052423;28;20029;-60
2023/11/13 00:32:00;;;;;;;0.00;0.00;;;;;;;;;;5057377;28;20036;-60
2023/11/13 00:34:28;;;;;;;0.00;0.00;;;;;;;;;;5072350;28;20071;-60
2023/11/13 00:36:56;;;;;;;0.00;0.00;;;;;;;;;;5072806;28;20052;-60
2023/11/13 00:39:22;;;;;;;0.10;0.10;;;;;;;;;;5072115;28;20052;-60
2023/11/13 00:41:49;;;;;;;0.30;0.10;;;;;;;;;;5065790;28;20057;-60
2023/11/13 00:44:16;;;;;;;0.53;0.37;;;;;;;;;;5048813;28;20021;-60
2023/11/13 00:46:43;;;;;;;2.07;0.90;;;;;;;;;;5048967;28;20053;-60
2023/11/13 00:49:09;;;;;;;5.47;0.80;;;;;;;;;;5049690;28;20025;-60
2023/11/13 00:51:36;;;;;;;1.03;0.83;;;;;;;;;;5067006;28;20035;-60
2023/11/13 00:54:03;;;;;;;1.70;1.03;;;;;;;;;;5070302;28;20075;-60
2023/11/13 00:56:30;;;;;;;5.90;1.13;;;;;;;;;;5073683;28;21675;-60
2023/11/13 00:58:57;;;;;;;3.63;1.67;;;;;;;;;;5060354;28;20033;-60
2023/11/13 01:01:26;;;;;;;3.17;1.77;;;;;;;;;;5052138;28;20047;-60
2023/11/13 01:03:53;;;;;;;1.27;1.03;;;;;;;;;;5048626;28;20032;-60
2023/11/13 01:06:19;;;;;;;2.30;1.53;;;;;;;;;;5066913;28;20421;-61
2023/11/13 01:08:46;;;;;;;1.90;0.73;;;;;;;;;;5067112;28;20040;-59
2023/11/13 01:11:13;;;;;;;0.67;0.47;;;;;;;;;;5066786;28;20430;-59
2023/11/13 01:13:41;;;;;;;5.87;1.07;;;;;;;;;;5066945;28;20025;-60
2023/11/13 01:16:08;;;;;;;1.53;1.17;;;;;;;;;;5054811;28;20024;-60
2023/11/13 01:18:35;;;;;;;1.43;0.90;;;;;;;;;;5071540;28;20028;-60
2023/11/13 01:21:03;;;;;;;0.73;0.60;;;;;;;;;;5072324;28;20060;-60
2023/11/13 01:23:29;;;;;;;1.87;0.93;;;;;;;;;;5071162;28;20399;-60
2023/11/13 01:25:56;;;;;;;0.67;0.50;;;;;;;;;;5065208;28;20039;-60
2023/11/13 01:28:23;;;;;;;0.80;0.60;;;;;;;;;;5067081;28;20024;-59
2023/11/13 01:30:49;;;;;;;1.07;0.40;;;;;;;;;;5067468;28;20487;-60
2023/11/13 01:33:16;;;;;;;1.10;0.70;;;;;;;;;;5067624;28;20040;-60
2023/11/13 01:35:43;;;;;;;1.23;0.77;;;;;;;;;;5071216;28;20094;-60
2023/11/13 01:38:09;;;;;;;1.20;0.73;;;;;;;;;;5072088;28;20020;-60
2023/11/13 01:40:42;;;;;;;0.67;0.50;;;;;;;;;;5072173;28;20036;-59
2023/11/13 01:43:22;;;;;;;1.50;0.77;;;;;;;;;;5072512;28;20073;-60
2023/11/13 01:45:53;;;;;;;1.77;0.80;;;;;;;;;;5071839;28;20040;-60
2023/11/13 01:48:20;;;;;;;1.83;1.00;;;;;;;;;;5066981;28;20075;-59
2023/11/13 01:50:47;;;;;;;1.20;0.80;;;;;;;;;;5066833;28;20059;-59
2023/11/13 01:53:15;;;;;;;1.00;0.50;;;;;;;;;;5067082;28;20025;-59
2023/11/13 01:55:42;;;;;;;2.03;0.90;;;;;;;;;;5052267;28;20033;-59
2023/11/13 01:58:10;;;;;;;2.73;0.90;;;;;;;;;;5052390;28;20472;-59
2023/11/13 02:00:37;;;;;;;16.47;1.10;;;;;;;;;;5051641;28;20033;-60
2023/11/13 02:03:05;;;;;;;1.00;0.53;;;;;;;;;;5051824;28;20048;-60
2023/11/13 02:05:32;;;;;;;0.67;0.60;;;;;;;;;;5052138;28;20171;-60
2023/11/13 02:07:58;;;;;;;2.20;0.83;;;;;;;;;;5056360;28;20024;-59
2023/11/13 02:10:28;;;;;;;13.40;0.87;;;;;;;;;;5065718;28;20031;-60
2023/11/13 02:12:55;;;;;;;0.30;0.30;;;;;;;;;;5058746;28;20044;-60
2023/11/13 02:15:21;;;;;;;0.97;0.80;;;;;;;;;;5046787;28;20056;-60
2023/11/13 02:18:01;;;;;;;4.73;0.60;;;;;;;;;;5063940;28;20105;-59
2023/11/13 02:20:28;;;;;;;0.67;0.40;;;;;;;;;;5070689;28;20483;-59
2023/11/13 02:22:55;;;;;;;0.93;0.50;;;;;;;;;;5071064;28;20059;-60
2023/11/13 02:25:23;;;;;;;0.70;0.40;;;;;;;;;;5071722;28;20074;-59
2023/11/13 02:27:55;;;;;;;1.37;0.73;;;;;;;;;;5071309;28;20059;-59
2023/11/13 02:30:21;;;;;;;0.57;0.40;;;;;;;;;;5068498;28;20486;-61
2023/11/13 02:32:48;;;;;;;0.60;0.33;;;;;;;;;;5066730;28;20391;-60
2023/11/13 02:35:18;;;;;;;4.23;0.67;;;;;;;;;;5066403;28;21301;-60
2023/11/13 02:37:45;;;;;;;0.83;0.43;;;;;;;;;;5066077;28;20035;-61
2023/11/13 02:40:12;;;;;;;0.37;0.37;;;;;;;;;;5046484;28;20041;-59
2023/11/13 02:42:42;;;;;;;0.57;0.33;;;;;;;;;;5068782;28;20025;-60
2023/11/13 02:45:09;;;;;;;0.10;0.07;;;;;;;;;;5071063;28;20028;-60
2023/11/13 02:47:36;;;;;;;0.93;0.53;;;;;;;;;;5070828;28;20040;-60
2023/11/13 02:50:03;;;;;;;1.00;0.40;;;;;;;;;;5070895;28;20047;-59
2023/11/13 02:52:30;;;;;;;0.20;0.13;;;;;;;;;;5070692;28;20360;-60
2023/11/13 02:54:57;;;;;;;1.10;0.50;;;;;;;;;;5047374;28;20029;-60
2023/11/13 02:57:23;;;;;;;0.93;0.50;;;;;;;;;;5055433;28;20534;-62
2023/11/13 02:59:50;;;;;;;0.77;0.63;;;;;;;;;;5066864;28;20024;-60
2023/11/13 03:02:17;;;;;;;0.40;0.20;;;;;;;;;;5070892;28;20387;-60
2023/11/13 03:04:44;;;;;;;1.30;0.67;;;;;;;;;;5073228;28;20032;-59
2023/11/13 03:07:10;;;;;;;0.33;0.20;;;;;;;;;;5075596;28;20055;-59
2023/11/13 03:09:37;;;;;;;1.13;0.50;;;;;;;;;;5075628;28;20383;-61
2023/11/13 03:12:04;;;;;;;0.43;0.33;;;;;;;;;;5075677;28;20021;-60
2023/11/13 03:14:30;;;;;;;1.13;0.57;;;;;;;;;;5075290;28;20119;-61
2023/11/13 03:16:58;;;;;;;0.70;0.40;;;;;;;;;;5072104;28;20039;-60
2023/11/13 03:19:25;;;;;;;0.20;0.20;;;;;;;;;;5070511;28;20487;-60
2023/11/13 03:21:51;;;;;;;0.23;0.20;;;;;;;;;;5070798;28;20394;-60
2023/11/13 03:24:18;;;;;;;0.67;0.43;;;;;;;;;;5070377;28;20024;-61
2023/11/13 03:26:45;;;;;;;10.83;0.43;;;;;;;;;;5072681;28;20028;-61
2023/11/13 03:29:12;;;;;;;0.40;0.40;;;;;;;;;;5075376;28;20061;-60
2023/11/13 03:31:39;;;;;;;0.20;0.20;;;;;;;;;;5074696;28;20443;-60
2023/11/13 03:34:06;;;;;;;0.47;0.30;;;;;;;;;;5074849;28;20056;-60
2023/11/13 03:36:32;;;;;;;1.87;0.70;;;;;;;;;;5075181;28;20044;-60
2023/11/13 03:38:59;;;;;;;0.30;0.30;;;;;;;;;;5072721;28;20028;-59
2023/11/13 03:41:27;;;;;;;0.50;0.30;;;;;;;;;;5068187;28;20047;-59
2023/11/13 03:43:53;;;;;;;1.40;0.37;;;;;;;;;;5070313;28;20038;-59
2023/11/13 03:46:20;;;;;;;0.77;0.53;;;;;;;;;;5058631;28;20660;-60
2023/11/13 03:48:47;;;;;;;0.80;0.60;;;;;;;;;;5051810;28;20029;-60
2023/11/13 03:51:14;;;;;;;1.13;0.77;;;;;;;;;;5054621;28;20052;-60
2023/11/13 03:53:41;;;;;;;0.87;0.40;;;;;;;;;;5069782;28;20471;-60
2023/11/13 03:56:08;;;;;;;0.10;0.10;;;;;;;;;;5074923;28;20521;-60
2023/11/13 03:58:35;;;;;;;2.67;0.70;;;;;;;;;;5074742;28;20031;-60
2023/11/13 04:01:03;;;;;;;1.77;1.13;;;;;;;;;;5072929;28;20032;-60
2023/11/13 04:03:30;;;;;;;2.00;0.77;;;;;;;;;;5068884;28;20358;-60
2023/11/13 04:05:56;;;;;;;0.47;0.30;;;;;;;;;;5070070;28;20390;-60
2023/11/13 04:08:23;;;;;;;0.50;0.30;;;;;;;;;;5069433;28;20017;-60
2023/11/13 04:10:51;;;;;;;0.50;0.47;;;;;;;;;;5070237;28;20032;-61
2023/11/13 04:13:19;;;;;;;0.53;0.47;;;;;;;;;;5067174;28;20032;-60
2023/11/13 04:15:46;;;;;;;0.63;0.50;;;;;;;;;;5054412;28;20056;-60
2023/11/13 04:18:13;;;;;;;5.03;1.00;;;;;;;;;;5054521;28;20082;-60
2023/11/13 04:20:40;;;;;;;1.60;1.03;;;;;;;;;;5060351;28;20052;-59
2023/11/13 04:23:07;;;;;;;1.17;0.97;;;;;;;;;;5053383;28;20040;-60
2023/11/13 04:25:34;;;;;;;0.30;0.30;;;;;;;;;;5049334;28;20029;-60
2023/11/13 04:28:01;;;;;;;1.27;0.83;;;;;;;;;;5049626;28;20032;-60
2023/11/13 04:30:27;;;;;;;1.10;0.90;;;;;;;;;;5058967;28;20766;-60
2023/11/13 04:32:54;;;;;;;1.03;0.67;;;;;;;;;;5069301;28;20545;-60
2023/11/13 04:35:22;;;;;;;1.67;1.20;;;;;;;;;;5073351;28;20059;-60
2023/11/13 04:37:49;;;;;;;6.40;1.80;;;;;;;;;;5071060;28;20036;-60
2023/11/13 04:40:16;;;;;;;1.33;1.17;;;;;;;;;;5053992;28;20029;-60
2023/11/13 04:42:43;;;;;;;2.00;1.10;;;;;;;;;;5054979;28;20486;-60
2023/11/13 04:45:10;;;;;;;2.30;1.50;;;;;;;;;;5053337;28;20476;-60
2023/11/13 04:47:37;;;;;;;1.40;1.00;;;;;;;;;;5049176;28;20021;-60
2023/11/13 04:50:05;;;;;;;1.23;1.00;;;;;;;;;;5057450;28;20415;-60
2023/11/13 04:52:32;;;;;;;2.97;1.87;;;;;;;;;;5068819;28;20493;-60
2023/11/13 04:54:58;;;;;;;3.50;1.83;;;;;;;;;;5068919;28;20091;-60
2023/11/13 04:57:26;;;;;;;3.13;1.97;;;;;;;;;;5073362;28;20353;-60
2023/11/13 04:59:53;;;;;;;2.57;1.70;;;;;;;;;;5073305;28;20029;-59
2023/11/13 05:02:20;;;;;;;0.70;0.50;;;;;;;;;;5073152;28;20406;-60
2023/11/13 05:04:47;;;;;;;1.47;1.10;;;;;;;;;;5073608;28;20135;-60
2023/11/13 05:07:14;;;;;;;3.00;1.67;;;;;;;;;;5073614;28;20360;-60
2023/11/13 05:09:42;;;;;;;1.50;0.93;;;;;;;;;;5068563;28;20030;-60
2023/11/13 05:12:08;;;;;;;1.77;0.97;;;;;;;;;;5068333;28;20539;-60
2023/11/13 05:14:40;;;;;;;4.40;0.70;;;;;;;;;;5068458;28;20021;-59
2023/11/13 05:17:06;;;;;;;2.40;1.10;;;;;;;;;;5067515;28;20107;-60
2023/11/13 05:19:33;;;;;;;1.50;1.07;;;;;;;;;;5069694;28;20107;-60
2023/11/13 05:22:00;;;;;;;0.83;0.57;;;;;;;;;;5072829;28;20068;-60
2023/11/13 05:24:26;;;;;;;1.20;0.80;;;;;;;;;;5072172;28;20051;-60
2023/11/13 05:26:55;;;;;;;2.77;1.30;;;;;;;;;;5072774;28;20024;-60
2023/11/13 05:29:23;;;;;;;2.57;1.40;;;;;;;;;;5072176;28;20476;-60
2023/11/13 05:31:51;;;;;;;6.97;0.67;;;;;;;;;;5068421;28;20028;-60
2023/11/13 05:34:18;;;;;;;3.47;2.33;;;;;;;;;;5063606;28;20020;-61
2023/11/13 05:36:44;;;;;;;2.87;1.67;;;;;;;;;;5047480;28;20056;-60
2023/11/13 05:39:11;;;;;;;1.53;0.93;;;;;;;;;;5047596;28;20392;-60
2023/11/13 05:41:38;;;;;;;5.73;1.00;;;;;;;;;;5050858;28;20040;-60
2023/11/13 05:44:04;;;;;;;1.90;1.23;;;;;;;;;;5053859;28;20025;-59
2023/11/13 05:46:31;;;;;;;1.33;0.90;;;;;;;;;;5072162;28;20035;-60
2023/11/13 05:48:59;;;;;;;0.77;0.60;;;;;;;;;;5072256;28;20016;-59
2023/11/13 05:51:25;;;;;;;0.70;0.50;;;;;;;;;;5071899;28;20450;-59
2023/11/13 05:53:52;;;;;;;4.53;1.03;;;;;;;;;;5068254;28;20375;-60
2023/11/13 05:56:19;;;;;;;2.80;1.40;;;;;;;;;;5067177;28;20121;-60
2023/11/13 05:58:45;;;;;;;1.03;0.90;;;;;;;;;;5066893;28;20033;-60
2023/11/13 06:01:12;;;;;;;13.17;1.57;;;;;;;;;;5066689;28;20042;-60
2023/11/13 06:03:39;;;;;;;2.10;1.60;;;;;;;;;;5069558;28;20021;-60
2023/11/13 06:06:07;;;;;;;1.70;1.00;;;;;;;;;;5072093;28;20043;-60
2023/11/13 06:08:34;;;;;;;3.97;1.47;;;;;;;;;;5071885;28;20070;-59
2023/11/13 06:11:01;;;;;;;1.87;1.10;;;;;;;;;;5071213;28;20036;-60
2023/11/13 06:13:29;;;;;;;3.47;1.53;;;;;;;;;;5072136;28;20027;-60
2023/11/13 06:15:55;;;;;;;3.50;1.90;;;;;;;;;;5068818;28;20036;-60
2023/11/13 06:18:22;;;;;;;1.97;1.40;;;;;;;;;;5066779;28;20538;-59
2023/11/13 06:20:49;;;;;;;1.13;0.90;;;;;;;;;;5066309;28;20048;-60
2023/11/13 06:23:15;;;;;;;1.33;1.07;;;;;;;;;;5066865;28;20438;-60
2023/11/13 06:25:42;;;;;;;1.93;1.33;;;;;;;;;;5068752;28;20052;-59
2023/11/13 06:28:08;;;;;;;2.57;1.43;;;;;;;;;;5071585;28;20063;-59
2023/11/13 06:30:35;;;;;;;1.60;1.20;;;;;;;;;;5071174;28;20375;-60
2023/11/13 06:33:03;;;;;;;1.97;1.10;;;;;;;;;;5071686;28;20033;-60
2023/11/13 06:35:29;;;;;;;27.43;1.50;;;;;;;;;;5070324;28;20039;-59
2023/11/13 06:37:57;;;;;;;1.43;0.97;;;;;;;;;;5069199;28;20463;-60
2023/11/13 06:40:24;;;;;;;1.50;0.90;;;;;;;;;;5066154;28;20406;-59
2023/11/13 06:42:51;;;;;;;1.07;0.77;;;;;;;;;;5067005;28;20021;-60
2023/11/13 06:45:17;;;;;;;3.27;1.00;;;;;;;;;;5066502;28;20025;-60
2023/11/13 06:47:50;;;;;;;2.13;1.40;;;;;;;;;;5053906;28;20024;-60
2023/11/13 06:50:18;;;;;;;1.40;0.77;;;;;;;;;;5063094;28;20479;-60
2023/11/13 06:52:44;;;;;;;1.20;0.67;;;;;;;;;;5062104;28;20341;-59
2023/11/13 06:55:14;;;;;;;0.80;0.67;;;;;;;;;;5059806;28;20051;-59
2023/11/13 06:57:43;;;;;;;0.77;0.57;;;;;;;;;;5070999;28;20027;-59
2023/11/13 07:00:11;;;;;;;1.53;0.80;;;;;;;;;;5069048;28;20050;-59
2023/11/13 07:02:43;;;;;;;0.70;0.50;;;;;;;;;;5066359;28;20055;-59
2023/11/13 07:05:13;;;;;;;1.03;0.90;;;;;;;;;;5059685;28;20521;-59
2023/11/13 07:07:39;;;;;;;1.27;0.80;;;;;;;;;;5046574;28;20531;-59
2023/11/13 07:10:06;;;;;;;1.67;0.70;;;;;;;;;;5055561;28;20115;-60
2023/11/13 07:12:34;;;;;;;2.33;1.10;;;;;;;;;;5070912;28;20415;-59
2023/11/13 07:15:03;;;;;;;2.67;0.97;;;;;;;;;;5070956;28;20036;-59
2023/11/13 07:17:30;;;;;;;2.70;1.73;;;;;;;;;;5070854;28;20112;-60
2023/11/13 07:19:57;;;;;;;1.20;0.83;;;;;;;;;;5058547;28;20095;-60
2023/11/13 07:22:25;;;;;;;2.10;0.80;;;;;;;;;;5057652;28;20072;-60
2023/11/13 07:24:55;;;;;;;0.43;0.43;;;;;;;;;;5065957;28;20033;-60
2023/11/13 07:27:22;;;;;;;0.50;0.47;;;;;;;;;;5066138;28;20031;-60
2023/11/13 07:29:50;;;;;;;0.57;0.43;;;;;;;;;;5066144;28;20481;-60
2023/11/13 07:32:16;;;;;;;1.27;0.63;;;;;;;;;;5066901;28;20533;-58
2023/11/13 07:34:48;;;;;;;1.10;1.00;;;;;;;;;;5070441;28;20021;-59
2023/11/13 07:37:18;;;;;;;1.90;1.50;;;;;;;;;;5070792;28;20037;-59
2023/11/13 07:39:56;;;;;;;0.97;0.60;;;;;;;;;;5069683;28;20048;-59
2023/11/13 07:42:34;;;;;;;2.13;1.23;;;;;;;;;;5070498;28;20051;-59
2023/11/13 07:45:08;;;;;;;5.37;1.03;;;;;;;;;;5067497;28;20025;-60
2023/11/13 07:47:40;;;;;;;1.10;0.90;;;;;;;;;;5068307;28;20035;-60
2023/11/13 07:50:17;;;;;;;0.70;0.57;;;;;;;;;;5069628;28;20036;-60
2023/11/13 07:52:47;;;;;;;0.60;0.50;;;;;;;;;;5068808;28;20029;-59
2023/11/13 07:55:22;;;;;;;0.97;0.70;;;;;;;;;;5071140;28;20090;-60
2023/11/13 07:57:57;;;;;;;1.83;1.30;;;;;;;;;;5073737;28;20470;-60
2023/11/13 08:00:30;;;;;;;0.50;0.50;;;;;;;;;;5073793;28;20382;-59
2023/11/13 08:05:56;;;;;;;0.53;0.40;;;;;;;;;;5068260;28;20467;-60
2023/11/13 08:08:29;;;;;;;0.63;0.43;;;;;;;;;;5070257;28;20035;-59
2023/11/13 08:11:00;;;;;;;1.13;0.67;;;;;;;;;;5069214;28;20029;-60
2023/11/13 08:13:29;;;;;;;1.13;0.70;;;;;;;;;;5049882;28;20029;-60
2023/11/13 08:15:59;;;;;;;0.93;0.60;;;;;;;;;;5048711;28;20025;-60
2023/11/13 08:18:33;;;;;;;2.27;0.97;;;;;;;;;;5052508;28;20021;-60
2023/11/13 08:21:04;;;;;;;7.25;0.98;;;;;;;;;;5059192;28;20126;-59
2023/11/13 08:23:32;;;;;;;1.03;0.77;;;;;;;;;;5071918;28;20039;-60
2023/11/13 08:26:08;;;;;;;0.67;0.60;;;;;;;;;;5073763;28;20112;-60
2023/11/13 08:28:40;;;;;;;4.73;1.60;;;;;;;;;;5073581;28;20020;-59
2023/11/13 08:31:15;;;;;;;1.63;1.10;;;;;;;;;;5068805;28;20016;-59
2023/11/13 08:33:47;;;;;;;0.73;0.50;;;;;;;;;;5065074;28;20538;-60
2023/11/13 08:36:21;;;;;;;1.07;0.83;;;;;;;;;;5068879;28;20071;-59
2023/11/13 08:38:53;;;;;;;1.87;1.07;;;;;;;;;;5068739;28;20031;-59
2023/11/13 08:41:29;;;;;;;3.13;1.13;;;;;;;;;;5073414;28;20093;-59
2023/11/13 08:43:59;;;;;;;2.23;1.03;;;;;;;;;;5073840;28;20252;-60
2023/11/13 08:46:36;;;;;;;1.30;1.00;;;;;;;;;;5074050;28;20107;-60
2023/11/13 08:49:07;;;;;;;1.27;0.77;;;;;;;;;;5073169;28;20024;-59
2023/11/13 08:51:39;;;;;;;2.10;1.30;;;;;;;;;;5072259;28;20025;-59
2023/11/13 08:54:09;;;;;;;0.50;0.50;;;;;;;;;;5068617;28;20433;-59
2023/11/13 08:56:45;;;;;;;0.90;0.60;;;;;;;;;;5068184;28;20119;-59
2023/11/13 08:59:15;;;;;;;0.40;0.40;;;;;;;;;;5067921;28;20472;-59
2023/11/13 09:01:44;;;;;;;3.73;0.83;;;;;;;;;;5066779;28;20036;-60
2023/11/13 09:04:11;;;;;;;0.90;0.73;;;;;;;;;;5053057;28;20025;-59
2023/11/13 09:06:38;;;;;;;1.53;0.83;;;;;;;;;;5051103;28;20729;-59
2023/11/13 09:09:12;;;;;;;2.00;0.60;;;;;;;;;;5052488;28;20032;-59
2023/11/13 09:11:42;;;;;;;1.20;1.00;;;;;;;;;;5052703;28;20552;-59
2023/11/13 09:14:11;;;;;;;0.97;0.77;;;;;;;;;;5070604;28;20501;-59
2023/11/13 09:16:38;;;;;;;0.40;0.40;;;;;;;;;;5066623;28;20036;-60
2023/11/13 09:19:06;;;;;;;2.20;0.60;;;;;;;;;;5067003;28;20100;-60
2023/11/13 09:21:34;;;;;;;1.10;0.80;;;;;;;;;;5066518;28;20542;-59
2023/11/13 09:24:01;;;;;;;0.47;0.33;;;;;;;;;;5047285;28;20029;-60
2023/11/13 09:26:28;;;;;;;1.47;1.00;;;;;;;;;;5051700;28;20395;-60
2023/11/13 09:28:55;;;;;;;1.47;0.80;;;;;;;;;;5051392;28;20028;-59
2023/11/13 09:31:22;;;;;;;0.50;0.40;;;;;;;;;;5052053;28;20475;-59
2023/11/13 09:33:48;;;;;;;0.30;0.20;;;;;;;;;;5069901;28;20040;-60
2023/11/13 09:36:15;;;;;;;3.00;1.27;;;;;;;;;;5071485;28;20469;-60
2023/11/13 09:38:41;;;;;;;0.90;0.40;;;;;;;;;;5066533;28;20108;-59
2023/11/13 09:41:08;;;;;;;1.40;1.13;;;;;;;;;;5066376;28;20479;-59
2023/11/13 09:43:39;;;;;;;2.83;1.00;;;;;;;;;;5066301;28;20036;-59
2023/11/13 09:46:08;;;;;;;1.13;0.87;;;;;;;;;;5066195;28;20479;-59
2023/11/13 09:48:43;;;;;;;0.60;0.60;;;;;;;;;;5071396;28;20162;-60
2023/11/13 09:51:13;;;;;;;0.97;0.67;;;;;;;;;;5071057;28;20436;-59
2023/11/13 09:53:42;;;;;;;1.87;0.53;;;;;;;;;;5071380;28;20029;-59
2023/11/13 09:56:11;;;;;;;2.20;0.80;;;;;;;;;;5071481;28;20024;-59
2023/11/13 09:58:38;;;;;;;6.07;1.50;;;;;;;;;;5070354;28;20096;-61
2023/11/13 10:01:07;;;;;;;0.57;0.57;;;;;;;;;;5065842;28;20028;-59
2023/11/13 10:03:33;;;;;;;5.10;0.93;;;;;;;;;;5066071;28;20047;-59
2023/11/13 10:06:00;;;;;;;0.90;0.63;;;;;;;;;;5065811;28;20012;-60
2023/11/13 10:08:29;;;;;;;2.63;0.97;;;;;;;;;;5065649;28;20408;-59
2023/11/13 10:10:56;;;;;;;0.53;0.40;;;;;;;;;;5070911;28;20032;-60
2023/11/13 10:13:23;;;;;;;1.13;0.70;;;;;;;;;;5071055;28;20028;-59
2023/11/13 10:15:50;;;;;;;0.93;0.73;;;;;;;;;;5070665;28;20036;-59
2023/11/13 10:18:25;;;;;;;0.80;0.60;;;;;;;;;;5070993;28;20434;-60
2023/11/13 10:20:52;;;;;;;1.07;0.63;;;;;;;;;;5069691;28;20040;-57
2023/11/13 10:23:19;;;;;;;7.20;1.00;;;;;;;;;;5064518;28;20039;-58
2023/11/13 10:25:48;;;;;;;0.80;0.57;;;;;;;;;;5065177;28;20650;-57
2023/11/13 10:28:17;;;;;;;2.33;0.90;;;;;;;;;;5065695;28;20016;-57
2023/11/13 10:30:53;;;;;;;0.97;0.67;;;;;;;;;;5065316;28;20039;-57
2023/11/13 10:33:21;;;;;;;0.50;0.30;;;;;;;;;;5064836;28;20107;-58
2023/11/13 10:35:51;;;;;;;0.20;0.20;;;;;;;;;;5070635;28;20112;-57
2023/11/13 10:38:17;;;;;;;0.53;0.40;;;;;;;;;;5070702;28;20120;-57
2023/11/13 10:40:55;;;;;;;0.40;0.37;;;;;;;;;;5070702;28;20028;-58
2023/11/13 10:43:39;;;;;;;0.40;0.33;;;;;;;;;;5069614;28;20035;-57
2023/11/13 10:46:06;;;;;;;0.10;0.10;;;;;;;;;;5065545;28;20036;-57
2023/11/13 10:48:39;;;;;;;0.80;0.37;;;;;;;;;;5065890;28;20163;-57
2023/11/13 10:51:06;;;;;;;0.43;0.27;;;;;;;;;;5065246;28;20046;-57
2023/11/13 10:53:39;;;;;;;0.27;0.27;;;;;;;;;;5066580;28;20025;-57
2023/11/13 10:56:06;;;;;;;0.33;0.30;;;;;;;;;;5070467;28;20025;-57
2023/11/13 10:58:33;;;;;;;9.53;0.60;;;;;;;;;;5071006;28;20380;-57
2023/11/13 11:01:16;;;;;;;0.67;0.47;;;;;;;;;;5071254;28;20032;-57
2023/11/13 11:03:47;;;;;;;0.67;0.40;;;;;;;;;;5072082;28;20055;-57
2023/11/13 11:06:20;;;;;;;0.30;0.30;;;;;;;;;;5069589;28;20139;-57
2023/11/13 11:08:48;;;;;;;0.20;0.20;;;;;;;;;;5066636;28;20028;-57
2023/11/13 11:11:15;;;;;;;0.80;0.60;;;;;;;;;;5066274;28;20028;-58
2023/11/13 11:13:49;;;;;;;0.70;0.40;;;;;;;;;;5066527;28;20107;-57
2023/11/13 11:16:35;;;;;;;0.57;0.40;;;;;;;;;;5068386;28;20487;-57
2023/11/13 11:19:09;;;;;;;1.53;0.60;;;;;;;;;;5071971;28;20254;-57
2023/11/13 11:21:40;;;;;;;0.20;0.20;;;;;;;;;;5073412;28;20072;-57
2023/11/13 11:24:22;;;;;;;0.57;0.27;;;;;;;;;;5075293;28;20058;-57
2023/11/13 11:26:53;;;;;;;1.03;0.67;;;;;;;;;;5075840;28;20043;-57
2023/11/13 11:29:36;;;;;;;0.20;0.20;;;;;;;;;;5071306;28;20531;-57
2023/11/13 11:32:19;;;;;;;0.57;0.40;;;;;;;;;;5050357;28;20037;-57
2023/11/13 11:34:50;;;;;;;0.47;0.40;;;;;;;;;;5050392;28;20025;-57
2023/11/13 11:37:17;;;;;;;0.30;0.30;;;;;;;;;;5050136;28;20033;-57
2023/11/13 11:39:47;;;;;;;0.20;0.20;;;;;;;;;;5057644;28;20107;-57
2023/11/13 11:42:21;;;;;;;0.20;0.10;;;;;;;;;;5075284;28;20032;-57
2023/11/13 11:44:57;;;;;;;0.83;0.47;;;;;;;;;;5075098;28;20150;-57
2023/11/13 11:47:27;;;;;;;0.73;0.43;;;;;;;;;;5074666;28;20025;-58
2023/11/13 11:49:58;;;;;;;0.77;0.60;;;;;;;;;;5075309;28;20096;-57
2023/11/13 11:52:43;;;;;;;0.70;0.47;;;;;;;;;;5070068;28;20017;-57
2023/11/13 11:55:13;;;;;;;1.60;0.70;;;;;;;;;;5069914;28;20020;-57
2023/11/13 11:57:44;;;;;;;0.97;0.10;;;;;;;;;;5069097;28;20111;-58
2023/11/13 12:00:15;;;;;;;0.43;0.30;;;;;;;;;;5069755;28;20028;-57
2023/11/13 12:02:42;;;;;;;0.67;0.47;;;;;;;;;;5074544;28;20032;-57
2023/11/13 12:05:09;;;;;;;5.77;0.60;;;;;;;;;;5074900;28;20383;-57
2023/11/13 12:07:37;;;;;;;0.40;0.40;;;;;;;;;;5074711;28;20536;-57
2023/11/13 12:10:08;;;;;;;0.30;0.30;;;;;;;;;;5074318;28;20079;-57
2023/11/13 12:12:36;;;;;;;0.20;0.20;;;;;;;;;;5073663;28;20024;-57
2023/11/13 12:15:07;;;;;;;0.30;0.30;;;;;;;;;;5069380;28;20494;-57
2023/11/13 12:17:35;;;;;;;1.80;0.80;;;;;;;;;;5069626;28;20028;-57
2023/11/13 12:20:06;;;;;;;0.20;0.20;;;;;;;;;;5068898;28;20032;-57
2023/11/13 12:22:35;;;;;;;0.50;0.30;;;;;;;;;;5069025;28;20041;-57
2023/11/13 12:25:12;;;;;;;1.37;0.57;;;;;;;;;;5074514;28;20029;-57
2023/11/13 12:27:39;;;;;;;1.27;0.63;;;;;;;;;;5074386;28;20140;-57
2023/11/13 12:30:13;;;;;;;0.53;0.47;;;;;;;;;;5074663;28;20017;-57
2023/11/13 12:32:40;;;;;;;0.93;0.70;;;;;;;;;;5072748;28;20036;-57
2023/11/13 12:35:06;;;;;;;6.33;0.50;;;;;;;;;;5073128;28;20443;-57
2023/11/13 12:37:33;;;;;;;1.20;0.57;;;;;;;;;;5068793;28;20032;-57
2023/11/13 12:40:01;;;;;;;0.27;0.10;;;;;;;;;;5068958;28;20074;-57
2023/11/13 12:42:28;;;;;;;4.67;0.50;;;;;;;;;;5068665;28;20032;-58
2023/11/13 12:44:55;;;;;;;1.53;0.53;;;;;;;;;;5069119;28;20387;-57
2023/11/13 12:47:23;;;;;;;0.50;0.50;;;;;;;;;;5074101;28;20375;-57
2023/11/13 12:49:50;;;;;;;1.30;0.40;;;;;;;;;;5074143;28;20056;-57
2023/11/13 12:52:18;;;;;;;0.67;0.47;;;;;;;;;;5074140;28;20025;-57
2023/11/13 12:54:45;;;;;;;2.67;1.43;;;;;;;;;;5073195;28;20039;-57
2023/11/13 12:57:15;;;;;;;1.13;0.70;;;;;;;;;;5072835;28;20026;-57
2023/11/13 12:59:45;;;;;;;0.80;0.57;;;;;;;;;;5068790;28;20031;-57
2023/11/13 13:02:13;;;;;;;0.87;0.63;;;;;;;;;;5068624;28;20547;-57
2023/11/13 13:04:40;;;;;;;1.03;0.67;;;;;;;;;;5068831;28;20365;-57
2023/11/13 13:07:08;;;;;;;4.27;0.63;;;;;;;;;;5068488;28;20151;-57
2023/11/13 13:09:35;;;;;;;2.37;0.97;;;;;;;;;;5073147;28;20028;-57
2023/11/13 13:12:02;;;;;;;4.13;2.77;;;;;;;;;;5073668;28;20021;-57
2023/11/13 13:14:30;;;;;;;6.50;1.83;;;;;;;;;;5073642;28;20013;-57
2023/11/13 13:17:00;;;;;;;2.53;1.00;;;;;;;;;;5073529;28;20056;-57
2023/11/13 13:19:27;;;;;;;1.10;0.70;;;;;;;;;;5072510;28;20108;-57
2023/11/13 13:21:54;;;;;;;2.63;1.13;;;;;;;;;;5067890;28;20041;-57
2023/11/13 13:24:25;;;;;;;3.30;1.17;;;;;;;;;;5068130;28;20116;-57
2023/11/13 13:26:55;;;;;;;4.50;1.40;;;;;;;;;;5068064;28;20043;-57
2023/11/13 13:29:22;;;;;;;1.80;1.43;;;;;;;;;;5067971;28;20032;-57
2023/11/13 13:31:51;;;;;;;1.97;1.00;;;;;;;;;;5072845;28;20039;-57
2023/11/13 13:34:18;;;;;;;1.30;1.10;;;;;;;;;;5073100;28;20032;-60
2023/11/13 13:36:45;;;;;;;2.47;1.20;;;;;;;;;;5073050;28;20027;-60
2023/11/13 13:39:15;;;;;;;0.37;0.30;;;;;;;;;;5073126;28;20115;-59
2023/11/13 13:41:43;;;;;;;1.00;0.83;;;;;;;;;;5072439;28;20033;-59
2023/11/13 13:44:12;;;;;;;0.67;0.60;;;;;;;;;;5067163;28;20032;-59
2023/11/13 13:46:42;;;;;;;0.67;0.60;;;;;;;;;;5067478;28;20540;-59
2023/11/13 13:49:09;;;;;;;0.57;0.47;;;;;;;;;;5067598;28;20016;-59
2023/11/13 13:51:37;;;;;;;3.33;0.60;;;;;;;;;;5067713;28;20024;-59
2023/11/13 13:54:07;;;;;;;0.77;0.50;;;;;;;;;;5072195;28;20093;-59
2023/11/13 13:56:35;;;;;;;0.47;0.43;;;;;;;;;;5072549;28;20037;-60
2023/11/13 13:59:08;;;;;;;3.20;1.03;;;;;;;;;;5072945;28;20033;-59
2023/11/13 14:01:36;;;;;;;1.23;0.87;;;;;;;;;;5072228;28;20035;-61
2023/11/13 14:04:04;;;;;;;20.67;1.00;;;;;;;;;;5052100;28;20037;-60
2023/11/13 14:06:30;;;;;;;4.17;0.80;;;;;;;;;;5047353;28;20044;-60
2023/11/13 14:08:58;;;;;;;2.00;0.90;;;;;;;;;;5062635;28;20039;-59
2023/11/13 14:11:25;;;;;;;1.87;1.07;;;;;;;;;;5067144;28;20055;-59
2023/11/13 14:13:55;;;;;;;1.20;0.53;;;;;;;;;;5066684;28;20181;-60
2023/11/13 14:16:21;;;;;;;1.53;0.73;;;;;;;;;;5072367;28;20028;-59
2023/11/13 14:18:49;;;;;;;1.37;0.80;;;;;;;;;;5072213;28;20055;-59
2023/11/13 14:21:16;;;;;;;1.37;0.60;;;;;;;;;;5071985;28;20047;-60
2023/11/13 14:23:43;;;;;;;2.57;1.03;;;;;;;;;;5072237;28;20113;-59
2023/11/13 14:26:14;;;;;;;1.50;0.90;;;;;;;;;;5072193;28;20017;-59
2023/11/13 14:28:42;;;;;;;0.90;0.80;;;;;;;;;;5066381;28;20035;-60
2023/11/13 14:31:09;;;;;;;6.00;1.23;;;;;;;;;;5066826;28;20988;-60
2023/11/13 14:33:38;;;;;;;1.40;0.97;;;;;;;;;;5067012;28;20162;-59
2023/11/13 14:36:07;;;;;;;2.17;1.47;;;;;;;;;;5066740;28;20396;-60
2023/11/13 14:38:35;;;;;;;2.07;1.57;;;;;;;;;;5070687;28;20079;-60
2023/11/13 14:41:03;;;;;;;4.97;1.87;;;;;;;;;;5070570;28;20037;-60
2023/11/13 14:43:31;;;;;;;2.17;1.07;;;;;;;;;;5071955;28;20020;-59
2023/11/13 14:46:00;;;;;;;1.67;1.00;;;;;;;;;;5071773;28;20048;-59
2023/11/13 14:48:26;;;;;;;0.90;0.50;;;;;;;;;;5071960;28;20040;-60
2023/11/13 14:50:53;;;;;;;0.80;0.77;;;;;;;;;;5066031;28;20028;-60
2023/11/13 14:53:20;;;;;;;1.80;1.10;;;;;;;;;;5066520;28;20488;-60